sensor_id;sensor_type;location;lat;lon;timestamp;temperature;humidity
49503;DHT22;35409;48.776;9.204;2023-07-31T00:00:12;16.20;99.90
49503;DHT22;35409;48.776;9.204;2023-07-31T00:02:38;16.20;99.90
49503;DHT22;35409;48.776;9.204;2023-07-31T00:05:04;16.20;99.90
49503;DHT22;35409;48.776;9.204;2023-07-31T00:07:31;16.10;99.90
49503;DHT22;35409;48.776;9.204;2023-07-31T00:09:57;16.10;99.90
49503;DHT22;35409;48.776;9.204;2023-07-31T00:12:23;16.10;99.90
49503;DHT22;35409;48.776;9.204;2023-07-31T00:14:49;16.00;99.90
49503;DHT22;35409;48.776;9.204;2023-07-31T00:17:16;16.10;99.90
49503;DHT22;35409;48.776;9.204;2023-07-31T00:19:42;16.10;99.90
49503;DHT22;35409;48.776;9.204;2023-07-31T00:22:07;16.10;99.90
49503;DHT22;35409;48.776;9.204;2023-07-31T00:24:33;16.10;99.90
49503;DHT22;35409;48.776;9.204;2023-07-31T00:26:58;16.00;99.90
49503;DHT22;35409;48.776;9.204;2023-07-31T00:29:24;16.00;99.90
49503;DHT22;35409;48.776;9.204;2023-07-31T00:31:49;16.00;99.90
49503;DHT22;35409;48.776;9.204;2023-07-31T00:34:15;16.00;99.90
49503;DHT22;35409;48.776;9.204;2023-07-31T00:36:40;16.00;99.90
49503;DHT22;35409;48.776;9.204;2023-07-31T00:39:06;16.00;99.90
49503;DHT22;35409;48.776;9.204;2023-07-31T00:41:32;15.90;99.90
49503;DHT22;35409;48.776;9.204;2023-07-31T00:43:57;16.00;99.90
49503;DHT22;35409;48.776;9.204;2023-07-31T00:46:23;16.00;99.90
49503;DHT22;35409;48.776;9.204;2023-07-31T00:48:49;16.00;99.90
49503;DHT22;35409;48.776;9.204;2023-07-31T00:51:15;16.00;99.90
49503;DHT22;35409;48.776;9.204;2023-07-31T00:53:41;15.90;99.90
49503;DHT22;35409;48.776;9.204;2023-07-31T00:56:07;15.90;99.90
49503;DHT22;35409;48.776;9.204;2023-07-31T00:58:33;15.90;99.90
49503;DHT22;35409;48.776;9.204;2023-07-31T01:00:59;15.90;99.90
49503;DHT22;35409;48.776;9.204;2023-07-31T01:03:24;15.80;99.90
49503;DHT22;35409;48.776;9.204;2023-07-31T01:06:14;15.90;99.90
49503;DHT22;35409;48.776;9.204;2023-07-31T01:11:21;15.80;99.90
49503;DHT22;35409;48.776;9.204;2023-07-31T01:13:51;15.60;99.90
49503;DHT22;35409;48.776;9.204;2023-07-31T01:16:17;15.60;99.90
49503;DHT22;35409;48.776;9.204;2023-07-31T01:18:42;15.50;99.90
49503;DHT22;35409;48.776;9.204;2023-07-31T01:24:28;15.40;99.90
49503;DHT22;35409;48.776;9.204;2023-07-31T01:27:20;15.30;99.90
49503;DHT22;35409;48.776;9.204;2023-07-31T01:32:37;15.20;99.90
49503;DHT22;35409;48.776;9.204;2023-07-31T01:35:04;15.10;99.90
49503;DHT22;35409;48.776;9.204;2023-07-31T01:37:30;15.20;99.90
49503;DHT22;35409;48.776;9.204;2023-07-31T01:39:55;15.20;99.90
49503;DHT22;35409;48.776;9.204;2023-07-31T01:42:21;15.30;99.90
49503;DHT22;35409;48.776;9.204;2023-07-31T01:44:47;15.30;99.90
49503;DHT22;35409;48.776;9.204;2023-07-31T01:47:12;15.40;99.90
49503;DHT22;35409;48.776;9.204;2023-07-31T01:49:38;15.40;99.90
49503;DHT22;35409;48.776;9.204;2023-07-31T01:52:04;15.40;99.90
49503;DHT22;35409;48.776;9.204;2023-07-31T01:54:29;15.40;99.90
49503;DHT22;35409;48.776;9.204;2023-07-31T01:56:55;15.50;99.90
49503;DHT22;35409;48.776;9.204;2023-07-31T01:59:21;15.50;99.90
49503;DHT22;35409;48.776;9.204;2023-07-31T02:01:46;15.50;99.90
49503;DHT22;35409;48.776;9.204;2023-07-31T02:04:12;15.50;99.90
49503;DHT22;35409;48.776;9.204;2023-07-31T02:06:39;15.60;99.90
49503;DHT22;35409;48.776;9.204;2023-07-31T02:09:04;15.60;99.90
49503;DHT22;35409;48.776;9.204;2023-07-31T02:11:30;15.60;99.90
49503;DHT22;35409;48.776;9.204;2023-07-31T02:13:56;15.60;99.90
49503;DHT22;35409;48.776;9.204;2023-07-31T02:16:21;15.60;99.90
49503;DHT22;35409;48.776;9.204;2023-07-31T02:18:47;15.60;99.90
49503;DHT22;35409;48.776;9.204;2023-07-31T02:21:12;15.60;99.90
49503;DHT22;35409;48.776;9.204;2023-07-31T02:23:38;15.60;99.90
49503;DHT22;35409;48.776;9.204;2023-07-31T02:26:03;15.80;99.90
49503;DHT22;35409;48.776;9.204;2023-07-31T02:28:29;15.80;99.90
49503;DHT22;35409;48.776;9.204;2023-07-31T02:30:55;15.80;99.90
49503;DHT22;35409;48.776;9.204;2023-07-31T02:33:21;15.90;99.90
49503;DHT22;35409;48.776;9.204;2023-07-31T02:35:46;15.90;99.90
49503;DHT22;35409;48.776;9.204;2023-07-31T02:38:12;15.90;99.90
49503;DHT22;35409;48.776;9.204;2023-07-31T02:40:39;15.90;99.90
49503;DHT22;35409;48.776;9.204;2023-07-31T02:43:05;15.90;99.90
49503;DHT22;35409;48.776;9.204;2023-07-31T02:45:31;15.90;99.90
49503;DHT22;35409;48.776;9.204;2023-07-31T02:47:56;15.90;99.90
49503;DHT22;35409;48.776;9.204;2023-07-31T02:50:22;15.90;99.90
49503;DHT22;35409;48.776;9.204;2023-07-31T02:52:47;15.90;99.90
49503;DHT22;35409;48.776;9.204;2023-07-31T02:55:13;15.90;99.90
49503;DHT22;35409;48.776;9.204;2023-07-31T02:57:39;15.90;99.90
49503;DHT22;35409;48.776;9.204;2023-07-31T03:00:05;15.80;99.90
49503;DHT22;35409;48.776;9.204;2023-07-31T03:02:32;15.80;99.90
49503;DHT22;35409;48.776;9.204;2023-07-31T03:04:57;15.70;99.90
49503;DHT22;35409;48.776;9.204;2023-07-31T03:07:23;15.70;99.90
49503;DHT22;35409;48.776;9.204;2023-07-31T03:09:48;15.60;99.90
49503;DHT22;35409;48.776;9.204;2023-07-31T03:12:14;15.60;99.90
49503;DHT22;35409;48.776;9.204;2023-07-31T03:14:40;15.50;99.90
49503;DHT22;35409;48.776;9.204;2023-07-31T03:17:06;15.50;99.90
49503;DHT22;35409;48.776;9.204;2023-07-31T03:19:32;15.40;99.90
49503;DHT22;35409;48.776;9.204;2023-07-31T03:21:58;15.50;99.90
49503;DHT22;35409;48.776;9.204;2023-07-31T03:24:24;15.50;99.90
49503;DHT22;35409;48.776;9.204;2023-07-31T03:26:50;15.50;99.90
49503;DHT22;35409;48.776;9.204;2023-07-31T03:29:15;15.50;99.90
49503;DHT22;35409;48.776;9.204;2023-07-31T03:31:41;15.50;99.90
49503;DHT22;35409;48.776;9.204;2023-07-31T03:34:06;15.40;99.90
49503;DHT22;35409;48.776;9.204;2023-07-31T03:36:32;15.50;99.90
49503;DHT22;35409;48.776;9.204;2023-07-31T03:38:58;15.40;99.90
49503;DHT22;35409;48.776;9.204;2023-07-31T03:41:23;15.40;99.90
49503;DHT22;35409;48.776;9.204;2023-07-31T03:43:50;15.40;99.90
49503;DHT22;35409;48.776;9.204;2023-07-31T03:46:21;15.30;99.90
49503;DHT22;35409;48.776;9.204;2023-07-31T03:48:47;15.30;99.90
49503;DHT22;35409;48.776;9.204;2023-07-31T03:51:13;15.20;99.90
49503;DHT22;35409;48.776;9.204;2023-07-31T03:53:38;15.20;99.90
49503;DHT22;35409;48.776;9.204;2023-07-31T03:56:04;15.10;99.90
49503;DHT22;35409;48.776;9.204;2023-07-31T03:58:30;15.10;99.90
49503;DHT22;35409;48.776;9.204;2023-07-31T04:00:55;15.20;99.90
49503;DHT22;35409;48.776;9.204;2023-07-31T04:03:21;15.30;99.90
49503;DHT22;35409;48.776;9.204;2023-07-31T04:05:47;15.30;99.90
49503;DHT22;35409;48.776;9.204;2023-07-31T04:08:12;15.50;99.90
49503;DHT22;35409;48.776;9.204;2023-07-31T04:10:38;15.60;99.90
49503;DHT22;35409;48.776;9.204;2023-07-31T04:13:03;15.70;99.90
49503;DHT22;35409;48.776;9.204;2023-07-31T04:15:29;15.80;99.90
49503;DHT22;35409;48.776;9.204;2023-07-31T04:17:54;15.90;99.90
49503;DHT22;35409;48.776;9.204;2023-07-31T04:20:20;16.10;99.90
49503;DHT22;35409;48.776;9.204;2023-07-31T04:22:46;16.20;99.90
49503;DHT22;35409;48.776;9.204;2023-07-31T04:25:11;16.30;99.90
49503;DHT22;35409;48.776;9.204;2023-07-31T04:27:37;16.30;99.90
49503;DHT22;35409;48.776;9.204;2023-07-31T04:30:03;16.40;99.90
49503;DHT22;35409;48.776;9.204;2023-07-31T04:32:28;16.40;99.90
49503;DHT22;35409;48.776;9.204;2023-07-31T04:34:55;16.40;99.90
49503;DHT22;35409;48.776;9.204;2023-07-31T04:37:20;16.50;99.90
49503;DHT22;35409;48.776;9.204;2023-07-31T04:39:46;16.50;99.90
49503;DHT22;35409;48.776;9.204;2023-07-31T04:42:12;16.60;99.90
49503;DHT22;35409;48.776;9.204;2023-07-31T04:44:37;16.60;99.90
49503;DHT22;35409;48.776;9.204;2023-07-31T04:47:03;16.70;99.90
49503;DHT22;35409;48.776;9.204;2023-07-31T04:49:29;16.80;99.90
49503;DHT22;35409;48.776;9.204;2023-07-31T04:51:54;16.90;99.90
49503;DHT22;35409;48.776;9.204;2023-07-31T04:54:20;17.00;99.90
49503;DHT22;35409;48.776;9.204;2023-07-31T04:56:45;17.00;99.90
49503;DHT22;35409;48.776;9.204;2023-07-31T04:59:11;17.10;99.90
49503;DHT22;35409;48.776;9.204;2023-07-31T05:01:36;17.20;99.90
49503;DHT22;35409;48.776;9.204;2023-07-31T05:04:02;17.20;99.90
49503;DHT22;35409;48.776;9.204;2023-07-31T05:06:28;17.20;99.90
49503;DHT22;35409;48.776;9.204;2023-07-31T05:08:53;17.20;99.90
49503;DHT22;35409;48.776;9.204;2023-07-31T05:11:19;17.20;99.90
49503;DHT22;35409;48.776;9.204;2023-07-31T05:13:44;17.20;99.90
49503;DHT22;35409;48.776;9.204;2023-07-31T05:16:10;17.20;99.90
49503;DHT22;35409;48.776;9.204;2023-07-31T05:18:35;17.20;99.90
49503;DHT22;35409;48.776;9.204;2023-07-31T05:21:01;17.10;99.90
49503;DHT22;35409;48.776;9.204;2023-07-31T05:23:27;17.10;99.90
49503;DHT22;35409;48.776;9.204;2023-07-31T05:25:53;17.10;99.90
49503;DHT22;35409;48.776;9.204;2023-07-31T05:28:18;17.10;99.90
49503;DHT22;35409;48.776;9.204;2023-07-31T05:30:44;17.10;99.90
49503;DHT22;35409;48.776;9.204;2023-07-31T05:33:09;17.10;99.90
49503;DHT22;35409;48.776;9.204;2023-07-31T05:35:35;17.10;99.90
49503;DHT22;35409;48.776;9.204;2023-07-31T05:38:01;17.10;99.90
49503;DHT22;35409;48.776;9.204;2023-07-31T05:40:26;17.10;99.90
49503;DHT22;35409;48.776;9.204;2023-07-31T05:42:52;17.20;99.90
49503;DHT22;35409;48.776;9.204;2023-07-31T05:45:17;17.30;99.90
49503;DHT22;35409;48.776;9.204;2023-07-31T05:47:43;17.40;99.90
49503;DHT22;35409;48.776;9.204;2023-07-31T05:50:09;17.60;99.90
49503;DHT22;35409;48.776;9.204;2023-07-31T05:52:34;17.70;99.90
49503;DHT22;35409;48.776;9.204;2023-07-31T05:55:00;17.90;99.90
49503;DHT22;35409;48.776;9.204;2023-07-31T05:57:26;18.00;99.90
49503;DHT22;35409;48.776;9.204;2023-07-31T05:59:52;18.10;99.90
49503;DHT22;35409;48.776;9.204;2023-07-31T06:02:18;18.20;99.90
49503;DHT22;35409;48.776;9.204;2023-07-31T06:04:44;18.30;99.90
49503;DHT22;35409;48.776;9.204;2023-07-31T06:07:10;18.40;99.90
49503;DHT22;35409;48.776;9.204;2023-07-31T06:09:36;18.50;99.90
49503;DHT22;35409;48.776;9.204;2023-07-31T06:12:02;18.60;99.90
49503;DHT22;35409;48.776;9.204;2023-07-31T06:14:27;18.60;99.90
49503;DHT22;35409;48.776;9.204;2023-07-31T06:16:53;18.70;99.90
49503;DHT22;35409;48.776;9.204;2023-07-31T06:19:18;18.70;99.90
49503;DHT22;35409;48.776;9.204;2023-07-31T06:21:45;18.80;99.90
49503;DHT22;35409;48.776;9.204;2023-07-31T06:24:11;19.00;99.90
49503;DHT22;35409;48.776;9.204;2023-07-31T06:26:37;19.10;99.90
49503;DHT22;35409;48.776;9.204;2023-07-31T06:29:03;19.10;99.90
49503;DHT22;35409;48.776;9.204;2023-07-31T06:31:28;19.20;99.90
49503;DHT22;35409;48.776;9.204;2023-07-31T06:33:54;19.40;99.90
49503;DHT22;35409;48.776;9.204;2023-07-31T06:36:20;19.60;99.90
49503;DHT22;35409;48.776;9.204;2023-07-31T06:38:45;19.80;99.90
49503;DHT22;35409;48.776;9.204;2023-07-31T06:41:11;19.90;99.90
49503;DHT22;35409;48.776;9.204;2023-07-31T06:43:37;20.00;99.90
49503;DHT22;35409;48.776;9.204;2023-07-31T06:46:06;20.10;99.90
49503;DHT22;35409;48.776;9.204;2023-07-31T06:48:33;20.10;99.90
49503;DHT22;35409;48.776;9.204;2023-07-31T06:50:58;20.10;99.90
49503;DHT22;35409;48.776;9.204;2023-07-31T06:53:24;20.10;99.90
49503;DHT22;35409;48.776;9.204;2023-07-31T06:55:50;20.20;99.90
49503;DHT22;35409;48.776;9.204;2023-07-31T06:58:17;20.20;99.90
49503;DHT22;35409;48.776;9.204;2023-07-31T07:00:43;20.40;99.90
49503;DHT22;35409;48.776;9.204;2023-07-31T07:03:08;20.50;99.90
49503;DHT22;35409;48.776;9.204;2023-07-31T07:05:34;20.70;99.90
49503;DHT22;35409;48.776;9.204;2023-07-31T07:08:00;20.80;99.90
49503;DHT22;35409;48.776;9.204;2023-07-31T07:10:25;20.90;99.90
49503;DHT22;35409;48.776;9.204;2023-07-31T07:12:51;20.80;99.90
49503;DHT22;35409;48.776;9.204;2023-07-31T07:15:16;20.90;99.90
49503;DHT22;35409;48.776;9.204;2023-07-31T07:17:42;20.90;99.90
49503;DHT22;35409;48.776;9.204;2023-07-31T07:20:08;20.90;99.90
49503;DHT22;35409;48.776;9.204;2023-07-31T07:22:34;20.90;99.90
49503;DHT22;35409;48.776;9.204;2023-07-31T07:25:00;21.00;99.90
49503;DHT22;35409;48.776;9.204;2023-07-31T07:27:25;21.20;99.90
49503;DHT22;35409;48.776;9.204;2023-07-31T07:29:51;21.40;99.90
49503;DHT22;35409;48.776;9.204;2023-07-31T07:32:20;21.50;99.90
49503;DHT22;35409;48.776;9.204;2023-07-31T07:34:47;21.60;99.90
49503;DHT22;35409;48.776;9.204;2023-07-31T07:37:13;21.70;99.90
49503;DHT22;35409;48.776;9.204;2023-07-31T07:39:39;21.70;99.90
49503;DHT22;35409;48.776;9.204;2023-07-31T07:42:04;21.60;99.90
49503;DHT22;35409;48.776;9.204;2023-07-31T07:44:30;21.50;99.90
49503;DHT22;35409;48.776;9.204;2023-07-31T07:46:55;21.50;99.90
49503;DHT22;35409;48.776;9.204;2023-07-31T07:49:21;21.50;99.90
49503;DHT22;35409;48.776;9.204;2023-07-31T07:51:48;21.60;99.90
49503;DHT22;35409;48.776;9.204;2023-07-31T07:54:15;21.60;99.90
49503;DHT22;35409;48.776;9.204;2023-07-31T07:56:42;21.60;99.80
49503;DHT22;35409;48.776;9.204;2023-07-31T07:59:07;21.50;99.90
49503;DHT22;35409;48.776;9.204;2023-07-31T08:01:33;21.60;99.90
49503;DHT22;35409;48.776;9.204;2023-07-31T08:03:58;21.70;99.80
49503;DHT22;35409;48.776;9.204;2023-07-31T08:06:24;21.70;99.50
49503;DHT22;35409;48.776;9.204;2023-07-31T08:08:50;21.80;99.60
49503;DHT22;35409;48.776;9.204;2023-07-31T08:11:15;21.90;99.40
49503;DHT22;35409;48.776;9.204;2023-07-31T08:13:41;22.00;99.00
49503;DHT22;35409;48.776;9.204;2023-07-31T08:16:07;22.00;98.80
49503;DHT22;35409;48.776;9.204;2023-07-31T08:18:32;22.00;99.00
49503;DHT22;35409;48.776;9.204;2023-07-31T08:20:58;21.90;99.00
49503;DHT22;35409;48.776;9.204;2023-07-31T08:23:25;21.80;99.00
49503;DHT22;35409;48.776;9.204;2023-07-31T08:25:51;21.80;99.30
49503;DHT22;35409;48.776;9.204;2023-07-31T08:28:16;21.80;99.20
49503;DHT22;35409;48.776;9.204;2023-07-31T08:30:42;21.90;98.70
49503;DHT22;35409;48.776;9.204;2023-07-31T08:33:08;22.10;98.80
49503;DHT22;35409;48.776;9.204;2023-07-31T08:35:33;22.30;98.70
49503;DHT22;35409;48.776;9.204;2023-07-31T08:37:59;22.30;98.50
49503;DHT22;35409;48.776;9.204;2023-07-31T08:40:25;22.50;98.50
49503;DHT22;35409;48.776;9.204;2023-07-31T08:42:53;22.50;98.20
49503;DHT22;35409;48.776;9.204;2023-07-31T08:45:20;22.60;97.70
49503;DHT22;35409;48.776;9.204;2023-07-31T08:47:49;22.70;97.60
49503;DHT22;35409;48.776;9.204;2023-07-31T08:50:17;22.70;97.30
49503;DHT22;35409;48.776;9.204;2023-07-31T08:52:45;22.90;97.50
49503;DHT22;35409;48.776;9.204;2023-07-31T08:55:11;22.90;97.30
49503;DHT22;35409;48.776;9.204;2023-07-31T08:57:37;23.00;96.90
49503;DHT22;35409;48.776;9.204;2023-07-31T09:00:05;23.00;97.10
49503;DHT22;35409;48.776;9.204;2023-07-31T09:02:46;23.10;97.10
49503;DHT22;35409;48.776;9.204;2023-07-31T09:05:14;23.20;96.70
49503;DHT22;35409;48.776;9.204;2023-07-31T09:07:42;23.40;96.40
49503;DHT22;35409;48.776;9.204;2023-07-31T09:10:11;23.50;96.30
49503;DHT22;35409;48.776;9.204;2023-07-31T09:12:38;23.70;95.90
49503;DHT22;35409;48.776;9.204;2023-07-31T09:15:04;23.70;95.80
49503;DHT22;35409;48.776;9.204;2023-07-31T09:17:34;23.70;95.60
49503;DHT22;35409;48.776;9.204;2023-07-31T09:20:17;23.90;95.80
49503;DHT22;35409;48.776;9.204;2023-07-31T09:22:43;24.10;95.30
49503;DHT22;35409;48.776;9.204;2023-07-31T09:25:23;24.30;95.50
49503;DHT22;35409;48.776;9.204;2023-07-31T09:27:52;24.40;94.90
49503;DHT22;35409;48.776;9.204;2023-07-31T09:30:18;24.40;95.10
49503;DHT22;35409;48.776;9.204;2023-07-31T09:32:48;24.40;94.70
49503;DHT22;35409;48.776;9.204;2023-07-31T09:35:32;24.50;94.60
49503;DHT22;35409;48.776;9.204;2023-07-31T09:38:11;24.60;94.80
49503;DHT22;35409;48.776;9.204;2023-07-31T09:40:39;24.40;94.60
49503;DHT22;35409;48.776;9.204;2023-07-31T09:43:07;24.10;94.60
49503;DHT22;35409;48.776;9.204;2023-07-31T09:45:38;23.90;95.00
49503;DHT22;35409;48.776;9.204;2023-07-31T09:48:17;23.70;95.00
49503;DHT22;35409;48.776;9.204;2023-07-31T09:50:45;23.60;95.10
49503;DHT22;35409;48.776;9.204;2023-07-31T09:53:11;23.60;95.30
49503;DHT22;35409;48.776;9.204;2023-07-31T09:55:38;23.60;95.20
49503;DHT22;35409;48.776;9.204;2023-07-31T09:58:06;23.60;95.10
49503;DHT22;35409;48.776;9.204;2023-07-31T10:00:32;23.70;95.20
49503;DHT22;35409;48.776;9.204;2023-07-31T10:03:04;24.00;95.00
49503;DHT22;35409;48.776;9.204;2023-07-31T10:05:38;24.20;94.90
49503;DHT22;35409;48.776;9.204;2023-07-31T10:08:07;24.40;94.30
49503;DHT22;35409;48.776;9.204;2023-07-31T10:10:36;24.20;94.40
49503;DHT22;35409;48.776;9.204;2023-07-31T10:13:04;24.10;94.10
49503;DHT22;35409;48.776;9.204;2023-07-31T10:15:30;24.10;94.10
49503;DHT22;35409;48.776;9.204;2023-07-31T10:17:58;24.40;93.80
49503;DHT22;35409;48.776;9.204;2023-07-31T10:20:24;24.50;93.60
49503;DHT22;35409;48.776;9.204;2023-07-31T10:22:52;24.70;93.50
49503;DHT22;35409;48.776;9.204;2023-07-31T10:25:19;24.90;93.30
49503;DHT22;35409;48.776;9.204;2023-07-31T10:27:47;25.10;92.60
49503;DHT22;35409;48.776;9.204;2023-07-31T10:30:20;25.10;92.40
49503;DHT22;35409;48.776;9.204;2023-07-31T10:32:46;25.20;92.50
49503;DHT22;35409;48.776;9.204;2023-07-31T10:35:14;25.30;92.10
49503;DHT22;35409;48.776;9.204;2023-07-31T10:37:42;25.20;92.70
49503;DHT22;35409;48.776;9.204;2023-07-31T10:40:28;25.30;92.10
49503;DHT22;35409;48.776;9.204;2023-07-31T10:42:55;25.30;91.80
49503;DHT22;35409;48.776;9.204;2023-07-31T10:45:38;25.00;92.10
49503;DHT22;35409;48.776;9.204;2023-07-31T10:48:14;25.10;92.30
49503;DHT22;35409;48.776;9.204;2023-07-31T10:50:55;25.30;91.90
49503;DHT22;35409;48.776;9.204;2023-07-31T10:53:30;25.40;92.00
49503;DHT22;35409;48.776;9.204;2023-07-31T10:56:00;25.40;91.70
49503;DHT22;35409;48.776;9.204;2023-07-31T10:58:26;25.30;91.60
49503;DHT22;35409;48.776;9.204;2023-07-31T11:00:56;25.40;91.40
49503;DHT22;35409;48.776;9.204;2023-07-31T11:03:25;25.50;91.50
49503;DHT22;35409;48.776;9.204;2023-07-31T15:15:34;26.40;89.10
49503;DHT22;35409;48.776;9.204;2023-07-31T15:17:59;26.60;89.80
49503;DHT22;35409;48.776;9.204;2023-07-31T15:20:25;26.90;89.00
49503;DHT22;35409;48.776;9.204;2023-07-31T15:22:51;27.30;87.50
49503;DHT22;35409;48.776;9.204;2023-07-31T18:52:24;21.30;99.90
49503;DHT22;35409;48.776;9.204;2023-07-31T18:54:49;21.10;99.90
49503;DHT22;35409;48.776;9.204;2023-07-31T18:59:42;20.70;99.90
49503;DHT22;35409;48.776;9.204;2023-07-31T19:02:07;20.30;99.90
49503;DHT22;35409;48.776;9.204;2023-07-31T19:04:33;20.00;99.90
